createdAt,value
2019-06-01T00:00:17.132Z,12.80
2019-06-01T00:02:52.559Z,13.32
2019-06-01T00:05:15.477Z,13.38
2019-06-01T00:07:44.911Z,15.40
2019-06-01T00:10:13.260Z,13.38
2019-06-01T00:12:41.577Z,17.35
2019-06-01T00:15:10.820Z,15.80
2019-06-01T00:17:39.633Z,14.98
2019-06-01T00:20:08.068Z,14.20
2019-06-01T00:22:36.371Z,15.08
2019-06-01T00:25:05.796Z,19.42
2019-06-01T00:27:34.106Z,16.15
2019-06-01T00:30:02.407Z,15.10
2019-06-01T00:32:30.707Z,16.75
2019-06-01T00:34:58.992Z,14.50
2019-06-01T00:37:27.312Z,17.17
2019-06-01T00:39:55.604Z,15.78
2019-06-01T00:42:23.912Z,14.23
2019-06-01T00:44:52.564Z,16.07
2019-06-01T00:47:20.849Z,15.65
2019-06-01T00:49:49.130Z,16.75
2019-06-01T00:52:17.475Z,19.05
2019-06-01T00:54:45.753Z,17.90
2019-06-01T00:57:14.065Z,17.80
2019-06-01T00:59:43.595Z,15.40
2019-06-01T01:02:12.035Z,16.75
2019-06-01T01:04:40.323Z,15.90
2019-06-01T01:07:08.610Z,19.10
2019-06-01T01:09:36.929Z,17.23
2019-06-01T01:12:05.223Z,18.73
2019-06-01T01:14:33.530Z,17.73
2019-06-01T01:17:01.818Z,19.15
2019-06-01T01:19:30.132Z,19.92
2019-06-01T01:21:58.487Z,21.33
2019-06-01T01:24:26.801Z,18.80
2019-06-01T01:26:55.084Z,20.02
2019-06-01T01:29:23.394Z,17.48
2019-06-01T01:31:51.688Z,18.73
2019-06-01T01:34:19.985Z,22.00
2019-06-01T01:36:49.421Z,21.70
2019-06-01T01:39:17.967Z,22.22
2019-06-01T01:41:46.607Z,23.35
2019-06-01T01:44:14.911Z,23.50
2019-06-01T01:46:43.203Z,20.82
2019-06-01T01:49:11.516Z,23.77
2019-06-01T01:51:39.803Z,23.75
2019-06-01T01:54:08.110Z,22.07
2019-06-01T01:56:36.402Z,20.70
2019-06-01T01:59:04.707Z,23.10
2019-06-01T02:01:34.464Z,21.60
2019-06-01T02:04:03.336Z,21.75
2019-06-01T02:06:31.745Z,26.45
2019-06-01T02:09:01.467Z,22.45
2019-06-01T02:11:30.112Z,24.12
2019-06-01T02:13:59.796Z,22.42
2019-06-01T02:16:28.413Z,25.05
2019-06-01T02:18:57.538Z,25.57
2019-06-01T02:21:26.755Z,24.47
2019-06-01T02:23:55.049Z,26.93
2019-06-01T02:26:23.343Z,25.82
2019-06-01T02:28:52.893Z,26.65
2019-06-01T02:31:37.485Z,27.25
2019-06-01T02:33:51.435Z,25.55
2019-06-01T02:36:19.769Z,25.68
2019-06-01T02:38:48.077Z,28.12
2019-06-01T02:41:16.739Z,27.87
2019-06-01T02:43:45.319Z,30.52
2019-06-01T02:46:13.628Z,26.17
2019-06-01T02:48:41.940Z,27.93
2019-06-01T02:51:10.244Z,28.95
2019-06-01T02:53:38.552Z,28.67
2019-06-01T02:56:06.866Z,27.40
2019-06-01T02:58:35.146Z,28.02
2019-06-01T03:01:15.403Z,27.75
2019-06-01T03:03:43.705Z,27.55
2019-06-01T03:06:13.254Z,27.27
2019-06-01T03:08:42.190Z,23.35
2019-06-01T03:11:12.370Z,24.15
2019-06-01T03:13:41.634Z,25.75
2019-06-01T03:16:11.246Z,25.17
2019-06-01T03:18:41.108Z,23.30
2019-06-01T03:21:09.793Z,28.40
2019-06-01T03:23:39.639Z,27.35
2019-06-01T03:26:08.870Z,28.32
2019-06-01T03:28:41.248Z,29.05
2019-06-01T03:31:10.695Z,29.48
2019-06-01T03:33:39.135Z,27.82
2019-06-01T03:36:07.440Z,28.83
2019-06-01T03:38:35.814Z,27.15
2019-06-01T03:41:04.139Z,28.52
2019-06-01T03:43:32.438Z,27.85
2019-06-01T03:46:00.922Z,26.90
2019-06-01T03:48:29.479Z,26.30
2019-06-01T03:50:57.796Z,25.08
2019-06-01T03:53:26.100Z,25.80
2019-06-01T03:55:54.421Z,26.35
2019-06-01T03:58:22.990Z,25.80
2019-06-01T04:00:51.332Z,23.00
2019-06-01T04:03:19.614Z,24.32
2019-06-01T04:05:47.919Z,28.52
2019-06-01T04:08:16.217Z,26.12
2019-06-01T04:10:44.526Z,23.73
2019-06-01T04:13:12.829Z,24.35
2019-06-01T04:15:41.145Z,29.12
2019-06-01T04:18:10.250Z,25.55
2019-06-01T04:20:38.737Z,28.00
2019-06-01T04:23:08.079Z,26.70
2019-06-01T04:25:37.318Z,27.73
2019-06-01T04:28:08.181Z,27.37
2019-06-01T04:30:36.741Z,26.77
2019-06-01T04:33:05.080Z,27.15
2019-06-01T04:35:33.365Z,27.05
2019-06-01T04:38:02.940Z,27.70
2019-06-01T04:40:31.334Z,28.47
2019-06-01T04:42:59.689Z,26.35
2019-06-01T04:45:27.974Z,25.25
2019-06-01T04:47:56.308Z,25.82
2019-06-01T04:50:24.607Z,25.45
2019-06-01T04:52:53.170Z,25.45
2019-06-01T04:55:21.507Z,25.62
2019-06-01T04:57:49.829Z,24.67
2019-06-01T05:00:27.242Z,25.57
2019-06-01T05:03:02.215Z,24.25
2019-06-01T05:05:18.822Z,24.65
2019-06-01T05:07:47.149Z,25.77
2019-06-01T05:10:16.135Z,25.27
2019-06-01T05:12:44.486Z,24.30
2019-06-01T05:15:15.952Z,23.10
2019-06-01T05:17:44.388Z,26.62
2019-06-01T05:20:14.708Z,26.82
2019-06-01T05:22:43.127Z,24.32
2019-06-01T05:25:13.638Z,24.75
2019-06-01T05:27:42.505Z,24.37
2019-06-01T05:30:11.588Z,27.27
2019-06-01T05:32:40.013Z,23.42
2019-06-01T05:35:09.598Z,22.62
2019-06-01T05:37:38.102Z,23.32
2019-06-01T05:40:10.504Z,26.00
2019-06-01T05:42:38.999Z,23.42
2019-06-01T05:45:09.149Z,23.12
2019-06-01T05:47:38.183Z,21.95
2019-06-01T05:50:10.634Z,22.05
2019-06-01T05:52:39.031Z,20.82
2019-06-01T05:55:07.787Z,20.30
2019-06-01T05:57:36.088Z,19.67
2019-06-01T06:00:07.881Z,20.15
2019-06-01T06:02:36.474Z,20.20
2019-06-01T06:05:06.888Z,18.95
2019-06-01T06:07:35.763Z,18.87
2019-06-01T06:10:07.585Z,17.90
2019-06-01T06:12:35.894Z,20.83
2019-06-01T06:15:05.440Z,16.10
2019-06-01T06:17:33.755Z,19.42
2019-06-01T06:20:02.044Z,16.27
2019-06-01T06:22:30.370Z,15.88
2019-06-01T06:24:58.656Z,15.68
2019-06-01T06:27:26.981Z,20.02
2019-06-01T06:29:55.271Z,15.03
2019-06-01T06:32:23.602Z,15.83
2019-06-01T06:34:51.878Z,16.40
2019-06-01T06:37:20.188Z,17.92
2019-06-01T06:39:48.512Z,14.85
2019-06-01T06:42:16.804Z,14.25
2019-06-01T06:44:45.154Z,16.23
2019-06-01T06:47:14.627Z,15.30
2019-06-01T06:49:43.061Z,14.53
2019-06-01T06:52:11.407Z,14.78
2019-06-01T06:54:39.723Z,13.95
2019-06-01T06:57:08.026Z,13.05
2019-06-01T06:59:36.347Z,17.70
2019-06-01T07:02:04.651Z,14.58
2019-06-01T07:04:32.973Z,13.70
2019-06-01T07:07:01.273Z,12.23
2019-06-01T07:09:29.586Z,15.55
2019-06-01T07:11:57.882Z,11.53
2019-06-01T07:14:27.462Z,13.25
2019-06-01T07:16:55.888Z,12.00
2019-06-01T07:19:24.234Z,10.43
2019-06-01T07:21:52.500Z,11.68
2019-06-01T07:24:21.774Z,9.18
2019-06-01T07:26:50.087Z,10.05
2019-06-01T07:29:18.404Z,9.98
2019-06-01T07:31:46.680Z,9.10
2019-06-01T07:34:29.633Z,10.10
2019-06-01T07:36:45.037Z,13.13
2019-06-01T07:39:13.343Z,10.00
2019-06-01T07:41:41.656Z,8.00
2019-06-01T07:44:09.961Z,6.87
2019-06-01T07:46:38.216Z,7.20
2019-06-01T07:49:06.522Z,8.25
2019-06-01T07:51:34.827Z,8.23
2019-06-01T07:54:03.123Z,9.20
2019-06-01T07:56:32.757Z,8.98
2019-06-01T07:59:01.098Z,7.12
2019-06-01T08:01:30.930Z,8.40
2019-06-01T08:03:59.401Z,6.50
2019-06-01T08:06:28.821Z,9.10
2019-06-01T08:08:57.745Z,7.17
2019-06-01T08:11:32.114Z,7.15
2019-06-01T08:13:56.075Z,7.78
2019-06-01T08:16:25.778Z,8.33
2019-06-01T08:18:54.245Z,5.97
2019-06-01T08:21:24.006Z,6.70
2019-06-01T08:23:52.365Z,6.85
2019-06-01T08:26:20.669Z,6.15
2019-06-01T08:28:48.954Z,8.15
2019-06-01T08:31:17.275Z,7.15
2019-06-01T08:33:45.557Z,6.80
2019-06-01T08:36:13.862Z,9.53
2019-06-01T08:38:42.155Z,6.72
2019-06-01T08:41:10.465Z,7.70
2019-06-01T08:43:38.770Z,8.95
2019-06-01T08:46:07.053Z,6.92
2019-06-01T08:48:35.362Z,7.90
2019-06-01T08:51:03.683Z,6.12
2019-06-01T08:53:32.235Z,7.97
2019-06-01T08:56:00.636Z,8.43
2019-06-01T08:58:30.390Z,5.25
2019-06-01T09:00:59.040Z,5.87
2019-06-01T09:03:27.775Z,5.92
2019-06-01T09:05:56.094Z,5.60
2019-06-01T09:08:25.560Z,5.42
2019-06-01T09:10:54.376Z,6.03
2019-06-01T09:13:22.768Z,7.25
2019-06-01T09:15:51.075Z,6.50
2019-06-01T09:18:19.356Z,6.22
2019-06-01T09:20:47.651Z,6.05
2019-06-01T09:23:15.941Z,6.53
2019-06-01T09:25:44.259Z,7.75
2019-06-01T09:28:12.554Z,5.37
2019-06-01T09:30:40.876Z,5.90
2019-06-01T09:33:09.161Z,5.40
2019-06-01T09:35:52.585Z,7.22
2019-06-01T09:38:07.532Z,8.10
2019-06-01T09:40:37.192Z,5.75
2019-06-01T09:43:05.614Z,4.92
2019-06-01T09:45:34.562Z,5.83
2019-06-01T09:48:02.900Z,4.75
2019-06-01T09:50:31.389Z,6.10
2019-06-01T09:52:59.776Z,6.67
2019-06-01T09:55:29.405Z,4.62
2019-06-01T09:57:58.139Z,5.80
2019-06-01T10:00:26.448Z,5.87
2019-06-01T10:02:54.735Z,5.28
2019-06-01T10:05:24.491Z,5.62
2019-06-01T10:07:52.796Z,6.15
2019-06-01T10:10:21.136Z,6.40
2019-06-01T10:12:49.400Z,5.47
2019-06-01T10:15:17.685Z,5.28
2019-06-01T10:17:46.003Z,4.97
2019-06-01T10:20:14.555Z,6.20
2019-06-01T10:22:42.853Z,6.08
2019-06-01T10:25:11.888Z,4.60
2019-06-01T10:27:40.204Z,5.70
2019-06-01T10:30:09.222Z,5.50
2019-06-01T10:32:38.038Z,3.62
2019-06-01T10:35:07.325Z,5.15
2019-06-01T10:37:35.924Z,5.00
2019-06-01T10:40:05.745Z,3.52
2019-06-01T10:42:35.712Z,5.55
2019-06-01T10:45:05.016Z,3.60
2019-06-01T10:47:33.776Z,4.42
2019-06-01T10:50:02.105Z,4.03
2019-06-01T10:52:30.456Z,4.00
2019-06-01T10:54:58.717Z,4.58
2019-06-01T10:57:27.029Z,5.95
2019-06-01T10:59:55.312Z,4.83
2019-06-01T11:02:23.641Z,7.90
2019-06-01T11:04:51.910Z,3.92
2019-06-01T11:07:20.208Z,4.42
2019-06-01T11:09:48.489Z,3.75
2019-06-01T11:12:16.794Z,5.58
2019-06-01T11:14:45.242Z,3.87
2019-06-01T11:17:13.554Z,6.22
2019-06-01T11:19:42.120Z,6.05
2019-06-01T11:22:10.820Z,4.15
2019-06-01T11:24:39.528Z,4.75
2019-06-01T11:27:07.894Z,5.05
2019-06-01T11:29:41.534Z,6.72
2019-06-01T11:32:06.208Z,4.87
2019-06-01T11:34:36.184Z,5.03
2019-06-01T11:37:05.678Z,3.90
2019-06-01T11:39:34.455Z,4.58
2019-06-01T11:42:03.146Z,4.60
2019-06-01T11:44:31.462Z,4.85
2019-06-01T11:46:59.749Z,4.80
2019-06-01T11:49:29.873Z,4.65
2019-06-01T11:51:58.145Z,5.58
2019-06-01T11:54:26.451Z,4.03
2019-06-01T11:56:54.732Z,5.20
2019-06-01T11:59:24.611Z,5.47
2019-06-01T12:01:52.881Z,3.83
2019-06-01T12:04:21.181Z,4.60
2019-06-01T12:06:49.501Z,6.30
2019-06-01T12:09:17.768Z,4.12
2019-06-01T12:11:46.496Z,6.28
2019-06-01T12:14:14.938Z,4.53
2019-06-01T12:16:44.609Z,5.03
2019-06-01T12:19:13.218Z,4.47
2019-06-01T12:21:42.934Z,4.78
2019-06-01T12:24:12.266Z,4.40
2019-06-01T12:26:41.355Z,5.85
2019-06-01T12:29:09.699Z,5.33
2019-06-01T12:31:37.983Z,3.60
2019-06-01T12:34:06.289Z,5.03
2019-06-01T12:36:34.576Z,3.50
2019-06-01T12:39:03.164Z,3.25
2019-06-01T12:41:31.436Z,5.70
2019-06-01T12:44:07.241Z,6.17
2019-06-01T12:46:35.597Z,3.87
2019-06-01T12:49:03.960Z,5.20
2019-06-01T12:51:32.239Z,4.58
2019-06-01T12:54:00.546Z,4.75
2019-06-01T12:56:28.881Z,3.83
2019-06-01T12:58:57.146Z,3.05
2019-06-01T13:01:25.460Z,3.58
2019-06-01T13:03:53.761Z,3.40
2019-06-01T13:06:22.260Z,3.50
2019-06-01T13:08:50.544Z,3.70
2019-06-01T13:11:18.869Z,2.98
2019-06-01T13:13:47.322Z,3.70
2019-06-01T13:16:15.701Z,5.70
2019-06-01T13:18:45.274Z,5.28
2019-06-01T13:21:13.694Z,6.28
2019-06-01T13:23:41.975Z,3.40
2019-06-01T13:26:10.295Z,3.85
2019-06-01T13:28:38.627Z,3.25
2019-06-01T13:31:06.899Z,3.87
2019-06-01T13:33:35.197Z,4.15
2019-06-01T13:36:03.507Z,2.95
2019-06-01T13:38:31.783Z,3.10
2019-06-01T13:41:00.102Z,2.05
2019-06-01T13:43:28.416Z,2.90
2019-06-01T13:45:57.295Z,3.85
2019-06-01T13:48:25.611Z,4.25
2019-06-01T13:50:54.041Z,2.27
2019-06-01T13:53:22.335Z,3.12
2019-06-01T13:55:50.660Z,4.10
2019-06-01T13:58:18.967Z,2.87
2019-06-01T14:00:48.379Z,3.50
2019-06-01T14:03:16.644Z,5.28
2019-06-01T14:05:44.956Z,3.10
2019-06-01T14:08:28.035Z,4.25
2019-06-01T14:10:43.265Z,5.05
2019-06-01T14:13:11.636Z,3.92
2019-06-01T14:15:39.933Z,3.08
2019-06-01T14:18:08.232Z,3.10
2019-06-01T14:20:36.546Z,2.98
2019-06-01T14:23:05.505Z,3.15
2019-06-01T14:25:33.824Z,2.87
2019-06-01T14:28:02.137Z,3.25
2019-06-01T14:30:30.415Z,4.85
2019-06-01T14:32:58.718Z,3.30
2019-06-01T14:35:27.005Z,3.52
2019-06-01T14:37:55.329Z,3.20
2019-06-01T14:40:23.608Z,5.92
2019-06-01T14:42:52.096Z,4.00
2019-06-01T14:45:20.347Z,5.78
2019-06-01T14:47:51.360Z,3.50
2019-06-01T14:50:21.534Z,3.50
2019-06-01T14:52:49.750Z,3.35
2019-06-01T14:55:18.037Z,2.27
2019-06-01T14:57:48.341Z,2.35
2019-06-01T15:00:16.781Z,2.65
2019-06-01T15:02:45.086Z,5.20
2019-06-01T15:05:13.709Z,6.30
2019-06-01T15:07:42.027Z,5.67
2019-06-01T15:10:13.706Z,2.80
2019-06-01T15:12:42.043Z,7.15
2019-06-01T15:15:10.382Z,4.20
2019-06-01T15:17:38.695Z,2.58
2019-06-01T15:20:10.359Z,4.83
2019-06-01T15:22:38.665Z,2.90
2019-06-01T15:25:08.494Z,4.08
2019-06-01T15:27:36.784Z,6.22
2019-06-01T15:30:10.044Z,5.08
2019-06-01T15:32:38.637Z,3.52
2019-06-01T15:35:11.342Z,2.37
2019-06-01T15:37:39.693Z,4.55
2019-06-01T15:40:08.612Z,2.85
2019-06-01T15:42:37.017Z,3.50
2019-06-01T15:45:08.744Z,3.92
2019-06-01T15:47:37.080Z,3.08
2019-06-01T15:50:06.830Z,5.05
2019-06-01T15:52:35.136Z,3.55
2019-06-01T15:55:04.919Z,5.12
2019-06-01T15:57:33.221Z,3.47
2019-06-01T16:00:02.916Z,3.00
2019-06-01T16:02:31.405Z,3.45
2019-06-01T16:04:59.739Z,3.15
2019-06-01T16:07:28.058Z,2.52
2019-06-01T16:09:57.382Z,3.05
2019-06-01T16:12:25.828Z,3.85
2019-06-01T16:14:55.345Z,2.90
2019-06-01T16:17:23.697Z,3.55
2019-06-01T16:19:52.046Z,4.42
2019-06-01T16:22:20.364Z,3.15
2019-06-01T16:24:48.677Z,6.12
2019-06-01T16:27:16.973Z,3.08
2019-06-01T16:29:45.294Z,3.15
2019-06-01T16:32:13.604Z,3.80
2019-06-01T16:34:41.907Z,4.17
2019-06-01T16:37:10.221Z,3.20
2019-06-01T16:39:38.535Z,2.83
2019-06-01T16:42:06.830Z,4.92
2019-06-01T16:44:35.138Z,3.33
2019-06-01T16:47:04.505Z,2.70
2019-06-01T16:49:32.926Z,4.12
2019-06-01T16:52:01.440Z,3.87
2019-06-01T16:54:30.062Z,5.78
2019-06-01T16:56:58.341Z,6.17
2019-06-01T16:59:26.657Z,3.40
2019-06-01T17:01:56.417Z,3.10
2019-06-01T17:04:24.834Z,5.05
2019-06-01T17:06:53.123Z,4.45
2019-06-01T17:09:21.420Z,2.98
2019-06-01T17:11:49.704Z,5.20
2019-06-01T17:14:18.007Z,5.08
2019-06-01T17:16:46.298Z,4.12
2019-06-01T17:19:14.620Z,9.20
2019-06-01T17:21:42.880Z,2.42
2019-06-01T17:24:11.241Z,5.03
2019-06-01T17:26:39.543Z,4.03
2019-06-01T17:29:08.294Z,2.45
2019-06-01T17:31:51.400Z,5.00
2019-06-01T17:34:06.760Z,2.95
2019-06-01T17:36:35.073Z,2.77
2019-06-01T17:39:06.084Z,1.85
2019-06-01T17:41:34.430Z,2.30
2019-06-01T17:44:02.890Z,2.70
2019-06-01T17:46:31.197Z,4.15
2019-06-01T17:49:00.022Z,2.33
2019-06-01T17:51:31.754Z,2.05
2019-06-01T17:53:58.392Z,4.75
2019-06-01T17:56:26.684Z,2.42
2019-06-01T17:58:56.543Z,2.45
2019-06-01T18:01:24.850Z,2.83
2019-06-01T18:03:53.161Z,3.67
2019-06-01T18:06:21.470Z,3.00
2019-06-01T18:08:49.745Z,1.92
2019-06-01T18:11:18.054Z,2.67
2019-06-01T18:13:46.381Z,2.75
2019-06-01T18:16:14.698Z,2.10
2019-06-01T18:18:42.979Z,2.35
2019-06-01T18:21:13.003Z,2.65
2019-06-01T18:23:41.225Z,1.77
2019-06-01T18:26:09.546Z,2.65
2019-06-01T18:28:37.812Z,2.22
2019-06-01T18:31:06.754Z,3.92
2019-06-01T18:33:35.097Z,2.22
2019-06-01T18:36:03.666Z,2.62
2019-06-01T18:38:31.927Z,2.50
2019-06-01T18:41:09.489Z,2.27
2019-06-01T18:43:30.266Z,2.87
2019-06-01T18:45:58.591Z,2.40
2019-06-01T18:48:26.860Z,3.27
2019-06-01T18:50:55.175Z,2.15
2019-06-01T18:53:23.479Z,2.10
2019-06-01T18:55:51.782Z,2.22
2019-06-01T18:58:20.139Z,3.08
2019-06-01T19:00:48.435Z,2.65
2019-06-01T19:03:16.736Z,3.75
2019-06-01T19:05:45.043Z,4.90
2019-06-01T19:08:13.706Z,1.82
2019-06-01T19:10:42.211Z,2.98
2019-06-01T19:13:11.623Z,4.85
2019-06-01T19:15:41.666Z,2.30
2019-06-01T19:18:10.494Z,2.37
2019-06-01T19:20:38.834Z,2.33
2019-06-01T19:23:08.580Z,3.40
2019-06-01T19:25:37.097Z,2.67
2019-06-01T19:28:06.707Z,3.80
2019-06-01T19:30:39.876Z,3.33
2019-06-01T19:33:11.094Z,4.60
2019-06-01T19:35:38.814Z,2.10
2019-06-01T19:38:07.221Z,2.65
2019-06-01T19:40:37.022Z,2.47
2019-06-01T19:43:07.412Z,3.37
2019-06-01T19:45:36.168Z,2.87
2019-06-01T19:48:05.504Z,4.00
2019-06-01T19:50:33.787Z,2.83
2019-06-01T19:53:02.165Z,3.72
2019-06-01T19:55:30.438Z,3.20
2019-06-01T19:57:58.739Z,4.37
2019-06-01T20:00:27.026Z,3.20
2019-06-01T20:02:55.331Z,3.80
2019-06-01T20:05:23.617Z,3.22
2019-06-01T20:07:51.921Z,3.30
2019-06-01T20:10:22.573Z,3.95
2019-06-01T20:12:50.255Z,4.33
2019-06-01T20:15:19.611Z,3.00
2019-06-01T20:17:47.933Z,2.95
2019-06-01T20:20:19.647Z,3.65
2019-06-01T20:22:48.023Z,3.15
2019-06-01T20:25:17.578Z,5.47
2019-06-01T20:27:45.949Z,3.12
2019-06-01T20:30:15.645Z,4.30
2019-06-01T20:32:44.155Z,4.55
2019-06-01T20:35:13.920Z,3.33
2019-06-01T20:37:42.380Z,5.25
2019-06-01T20:40:12.237Z,4.92
2019-06-01T20:42:40.531Z,2.90
2019-06-01T20:45:08.807Z,3.15
2019-06-01T20:47:37.126Z,4.17
2019-06-01T20:50:08.894Z,3.80
2019-06-01T20:52:37.180Z,5.35
2019-06-01T20:55:08.322Z,4.17
2019-06-01T20:57:36.614Z,4.17
2019-06-01T21:00:10.179Z,4.33
2019-06-01T21:02:38.484Z,3.55
2019-06-01T21:05:09.010Z,5.15
2019-06-01T21:07:37.276Z,4.35
2019-06-01T21:10:09.900Z,5.22
2019-06-01T21:12:46.259Z,6.15
2019-06-01T21:15:08.789Z,8.35
2019-06-01T21:17:37.077Z,5.03
2019-06-01T21:20:07.446Z,5.15
2019-06-01T21:22:35.788Z,5.78
2019-06-01T21:25:05.922Z,5.85
2019-06-01T21:27:34.202Z,6.28
2019-06-01T21:30:02.606Z,5.25
2019-06-01T21:32:30.856Z,7.00
2019-06-01T21:34:59.163Z,6.28
2019-06-01T21:37:27.450Z,5.15
2019-06-01T21:39:55.770Z,5.65
2019-06-01T21:42:24.052Z,7.95
2019-06-01T21:44:52.353Z,6.70
2019-06-01T21:47:21.693Z,5.70
2019-06-01T21:49:50.142Z,6.42
2019-06-01T21:52:18.433Z,7.80
2019-06-01T21:54:46.730Z,8.80
2019-06-01T21:57:16.048Z,6.90
2019-06-01T21:59:44.399Z,7.40
2019-06-01T22:02:12.676Z,7.50
2019-06-01T22:04:40.977Z,6.83
2019-06-01T22:07:09.253Z,9.10
2019-06-01T22:09:37.554Z,7.33
2019-06-01T22:12:05.827Z,6.75
2019-06-01T22:14:34.156Z,7.12
2019-06-01T22:17:02.421Z,7.45
2019-06-01T22:19:30.724Z,7.55
2019-06-01T22:21:59.010Z,10.03
2019-06-01T22:24:28.320Z,8.10
2019-06-01T22:26:56.684Z,8.28
2019-06-01T22:29:25.002Z,7.75
2019-06-01T22:31:53.279Z,6.62
2019-06-01T22:34:22.643Z,7.12
2019-06-01T22:36:51.050Z,8.55
2019-06-01T22:39:20.901Z,9.48
2019-06-01T22:41:49.230Z,7.85
2019-06-01T22:44:17.542Z,7.95
2019-06-01T22:46:45.828Z,8.38
2019-06-01T22:49:14.114Z,7.55
2019-06-01T22:51:42.423Z,10.48
2019-06-01T22:54:10.708Z,8.05
2019-06-01T22:56:39.001Z,8.70
2019-06-01T22:59:07.294Z,7.75
2019-06-01T23:01:35.594Z,9.85
2019-06-01T23:04:03.880Z,9.18
2019-06-01T23:06:33.691Z,7.90
2019-06-01T23:09:01.956Z,8.40
2019-06-01T23:11:30.259Z,8.38
2019-06-01T23:13:58.534Z,8.33
2019-06-01T23:16:27.636Z,9.50
2019-06-01T23:18:55.903Z,9.83
2019-06-01T23:21:24.206Z,9.35
2019-06-01T23:23:52.491Z,9.53
2019-06-01T23:26:22.017Z,10.32
2019-06-01T23:28:50.480Z,10.58
2019-06-01T23:31:20.132Z,9.98
2019-06-01T23:33:48.418Z,8.90
2019-06-01T23:36:16.718Z,11.30
2019-06-01T23:38:45.006Z,9.18
2019-06-01T23:41:13.305Z,9.60
2019-06-01T23:43:41.591Z,9.98
2019-06-01T23:46:09.908Z,12.07
2019-06-01T23:48:38.194Z,9.18
2019-06-01T23:51:06.500Z,8.55
2019-06-01T23:53:34.781Z,11.80
2019-06-01T23:56:03.106Z,9.58
2019-06-01T23:58:32.608Z,9.98
